Estación Meteorológica Peña el Pijo (Robertgarden) [ 01/30/23 14:14:11 CET ]

Fecha Hora Presion(HPa) Temp (°C) Humedad % Rocio (°C) Viento ( m/s) Direccion Lluvia 1Hora(mm) Lluvia 24H(mm) LLuvia Total(mm)
2012-Mar-25 01:01:19 1014.100 1.9 85 -0.4         155.40
2012-Mar-25 03:01:47 1014.000 1.3 87 -0.7         155.40
2012-Mar-25 04:01:44 1013.600 0.7 87 -1.2         155.40
2012-Mar-25 05:01:44 1013.400 0.3 88 -1.4         155.40
2012-Mar-25 06:01:51 1013.700 0.1 89 -1.5         155.40
2012-Mar-25 07:01:47 1013.900 -0.2 89 -1.8         155.40
2012-Mar-25 08:01:16 1014.100 -0.6 89 -2.2         155.40
2012-Mar-25 09:01:15 1014.300 0.1 91 -1.2         155.40
2012-Mar-25 10:01:12 1014.300 3.9 90 2.4         155.40
2012-Mar-25 11:01:15 1014.400 9.8 64 3.3         155.40
2012-Mar-25 12:01:15 1014.600 13.9 40 0.5         155.40
2012-Mar-25 13:01:14 1014.100 17.3 37 2.4         155.40
2012-Mar-25 14:01:15 1013.900 17.4 28 -1.4         155.40
2012-Mar-25 15:01:16 1013.400 18.4 28 -0.6         155.40
2012-Mar-25 16:01:15 1012.900 17.8 25 -2.7         155.40
2012-Mar-25 17:01:16 1013.100 17.6 28 -1.3         155.40
2012-Mar-25 18:01:14 1013.100 16.6 30 -1.1         155.40
2012-Mar-25 19:01:16 1013.300 15.2 31 -1.9         155.40
2012-Mar-25 20:01:12 1013.500 12.2 34 -3.3         155.40
2012-Mar-25 21:01:15 1013.900 9.5 45 -1.9         155.40
2012-Mar-25 22:01:17 1014.500 7.2 54 -1.5         155.40
2012-Mar-25 23:01:15 1015.100 4.9 64 -1.4         155.40

Temperatura Máxima:18°    Temperatura Mínima:
Presión Máxima:1015.100 Hpa    Presión Mínima:1012.900 Hpa


Volver